Thunderstorms From: 26-05-2018 21:24 Until: 27-05-2018 15:00 warning for: Thunderstorms Level: Yellow info button

Although rather usual in this region, locally or potentially dangerous phenomena are expected. (such as local winds, summer thunderstorms, rising streams or high waves) Be aware and pay attention to the latest weather updates, especially if you carry out activities exposed to weather or close to a stream or shoreline. 


Meteo18 Weather Cam more information Meteo18 Weather Cam


warning for Thunderstorms more information blitzortung!


Rain radar more information rain snow radar


Visit our other weather sites:

Template documentation
and downloads

And another site



Weather Underground History page Text

Daily Summary for September 24, 2016 Units:  Metric    English   Both
« Previous Day
Next Day »
Daily Weekly Monthly Yearly Custom
  High: Low: Average:
Temperature: -17.8 °C -12.8 °C -8.1 °C
Dew Point: -17.8 °C -13.5 °C -12.4 °C
Humidity: Humidity % 36 % 64 %
Wind Speed: 0 km/h 0 km/h 2.7 km/h
Wind Gust: 0 km/h - -
Wind:- - SE
Pressure: 0 hPa 34442.4 hPa -
Precipitation: 0 mm    
Historical Graphs
 
 
Tabular Data for September 24, 2016
Time Temperature Dew Point Pressure Wind Wind Speed Wind Gust Humidity Rainfall Rate (Hourly)
-17.8 °C -17.8 °C 0 hPa Calm     Humidity % 0 mm
00:02 -9.8 °C -12.4 °C 34682.8 hPa Calm   5.1 km/h 73 % 0 mm
00:07 -9.9 °C -12.6 °C 34682.8 hPa Calm   2.6 km/h 73 % 0 mm
00:17 -10.1 °C -12.6 °C 34682.8 hPa North 2.6 km/h 2.6 km/h 74 % 0 mm
00:22 -10.1 °C -12.5 °C 34682.8 hPa NNW 2.6 km/h 2.6 km/h 75 % 0 mm
00:27 -10.1 °C -12.7 °C 34682.8 hPa NNW 2.6 km/h 2.6 km/h 74 % 0 mm
00:32 -10.1 °C -12.7 °C 34682.8 hPa Calm   5.1 km/h 74 % 0 mm
00:37 -10.2 °C -12.6 °C 34682.8 hPa Calm   5.1 km/h 75 % 0 mm
00:42 -10.2 °C -12.6 °C 34682.8 hPa North 2.6 km/h 2.6 km/h 76 % 0 mm
00:47 -10.2 °C -12.7 °C 34682.8 hPa WNW 2.6 km/h 2.6 km/h 74 % 0 mm
00:52 -10.5 °C -12.7 °C 34682.8 hPa Calm   2.6 km/h 77 % 0 mm
00:57 -10.5 °C -12.7 °C 34682.8 hPa Calm   2.6 km/h 77 % 0 mm
01:02 -10.6 °C -12.6 °C 34682.8 hPa Calm   2.6 km/h 79 % 0 mm
01:07 -10.7 °C -12.7 °C 34682.8 hPa Calm   2.6 km/h 79 % 0 mm
01:12 -10.8 °C -12.7 °C 34682.8 hPa Calm   2.6 km/h 80 % 0 mm
01:17 -10.9 °C -12.7 °C 34682.8 hPa WNW 5.1 km/h 5.1 km/h 81 % 0 mm
01:22 -11 °C -12.7 °C 34669.3 hPa Calm   2.6 km/h 82 % 0 mm
01:27 -11.1 °C -12.6 °C 34669.3 hPa Calm   5.1 km/h 83 % 0 mm
01:32 -11.2 °C -12.7 °C 34669.3 hPa Calm   5.1 km/h 83 % 0 mm
01:37 -11.3 °C -12.8 °C 34669.3 hPa Calm   2.6 km/h 83 % 0 mm
01:42 -11.3 °C -12.8 °C 34669.3 hPa Calm   2.6 km/h 84 % 0 mm
01:47 -11.3 °C -12.8 °C 34669.3 hPa WNW 2.6 km/h 2.6 km/h 84 % 0 mm
01:52 -11.3 °C -12.8 °C 34669.3 hPa WNW 5.1 km/h 5.1 km/h 84 % 0 mm
02:02 -11.4 °C -12.7 °C 34682.8 hPa WNW 5.1 km/h 5.1 km/h 85 % 0 mm
02:12 -11.5 °C -12.8 °C 34682.8 hPa WNW 2.6 km/h 7.7 km/h 85 % 0 mm
02:17 -11.2 °C -12.6 °C 34682.8 hPa Calm   7.7 km/h 84 % 0 mm
02:22 -11.2 °C -12.9 °C 34682.8 hPa Calm   7.7 km/h 81 % 0 mm
02:27 -11.2 °C -12.7 °C 34669.3 hPa Calm   5.1 km/h 84 % 0 mm
02:32 -11.2 °C -12.8 °C 34669.3 hPa NW 2.6 km/h 5.1 km/h 83 % 0 mm
02:37 -11.2 °C -12.7 °C 34669.3 hPa NW 2.6 km/h 2.6 km/h 83 % 0 mm
02:42 -11.2 °C -12.8 °C 34669.3 hPa Calm   2.6 km/h 82 % 0 mm
02:52 -11.3 °C -12.8 °C 34669.3 hPa Calm   5.1 km/h 84 % 0 mm
02:57 -11.3 °C -12.7 °C 34669.3 hPa Calm   2.6 km/h 84 % 0 mm
03:02 -11.3 °C -12.8 °C 34669.3 hPa Calm   2.6 km/h 83 % 0 mm
03:12 -11.2 °C -12.9 °C 34669.3 hPa Calm   7.7 km/h 82 % 0 mm
03:17 -11.3 °C -12.8 °C 34669.3 hPa Calm   2.6 km/h 83 % 0 mm
03:22 -11.3 °C -12.9 °C 34669.3 hPa NNW 2.6 km/h 2.6 km/h 82 % 0 mm
03:27 -11.3 °C -12.9 °C 34669.3 hPa WNW 2.6 km/h 7.7 km/h 83 % 0 mm
03:32 -11.4 °C -12.7 °C 34659.1 hPa WNW 2.6 km/h 7.7 km/h 85 % 0 mm
03:37 -11.3 °C -12.7 °C 34659.1 hPa Calm   2.6 km/h 85 % 0 mm
03:42 -11.3 °C -12.9 °C 34659.1 hPa Calm   2.6 km/h 83 % 0 mm
03:47 -11.3 °C -12.8 °C 34659.1 hPa Calm   2.6 km/h 84 % 0 mm
03:52 -11.4 °C -12.9 °C 34659.1 hPa Calm   2.6 km/h 84 % 0 mm
03:57 -11.6 °C -12.9 °C 34659.1 hPa Calm   2.6 km/h 86 % 0 mm
04:02 -11.6 °C -12.7 °C 34659.1 hPa Calm   2.6 km/h 87 % 0 mm
04:12 -11.5 °C -12.8 °C 34659.1 hPa Calm     85 % 0 mm
04:17 -11.4 °C -12.7 °C 34659.1 hPa Calm   2.6 km/h 86 % 0 mm
04:22 -11.5 °C -12.8 °C 34645.6 hPa Calm   2.6 km/h 85 % 0 mm
04:27 -11.6 °C -12.9 °C 34645.6 hPa Calm   5.1 km/h 86 % 0 mm
04:32 -11.6 °C -12.8 °C 34645.6 hPa Calm   5.1 km/h 87 % 0 mm
04:37 -11.6 °C -12.8 °C 34645.6 hPa Calm   2.6 km/h 87 % 0 mm
04:42 -11.6 °C -12.8 °C 34635.4 hPa Calm   2.6 km/h 87 % 0 mm
04:47 -11.8 °C -12.8 °C 34635.4 hPa Calm     88 % 0 mm
04:52 -11.8 °C -12.9 °C 34645.6 hPa Calm     87 % 0 mm
05:02 -11.8 °C -12.8 °C 34645.6 hPa Calm     88 % 0 mm
05:12 -11.8 °C -13 °C 34635.4 hPa Calm   2.6 km/h 87 % 0 mm
05:17 -12.1 °C -13.1 °C 34635.4 hPa Calm   2.6 km/h 88 % 0 mm
05:22 -12.1 °C -12.9 °C 34635.4 hPa Calm   2.6 km/h 90 % 0 mm
05:32 -12.1 °C -13 °C 34635.4 hPa Calm     90 % 0 mm
05:42 -12.3 °C -13.2 °C 34635.4 hPa Calm     90 % 0 mm
05:52 -12.4 °C -13.3 °C 34635.4 hPa Calm     90 % 0 mm
06:02 -12.4 °C -13.3 °C 34635.4 hPa Calm   5.1 km/h 90 % 0 mm
06:12 -12.6 °C -13.5 °C 34635.4 hPa Calm   2.6 km/h 90 % 0 mm
06:22 -12.6 °C -13.2 °C 34635.4 hPa Calm     92 % 0 mm
06:32 -12.6 °C -13.3 °C 34635.4 hPa East 2.6 km/h   92 % 0 mm
06:37 -12.6 °C -13.2 °C 34635.4 hPa Calm   5.1 km/h 92 % 0 mm
06:42 -12.6 °C -13.3 °C 34635.4 hPa East 2.6 km/h 5.1 km/h 92 % 0 mm
06:52 -12.6 °C -13.2 °C 34635.4 hPa Calm   5.1 km/h 92 % 0 mm
07:02 -12.7 °C -13.3 °C 34635.4 hPa ESE 2.6 km/h 5.1 km/h 92 % 0 mm
07:12 -12.8 °C -13.5 °C 34635.4 hPa East 5.1 km/h 5.1 km/h 92 % 0 mm
07:17 -12.8 °C -13.4 °C 34635.4 hPa East 2.6 km/h 5.1 km/h 93 % 0 mm
07:22 -12.8 °C -13.4 °C 34635.4 hPa Calm   5.1 km/h 93 % 0 mm
07:32 -12.6 °C -13.1 °C 34635.4 hPa Calm   5.1 km/h 94 % 0 mm
07:42 -12.7 °C -13.4 °C 34635.4 hPa Calm   5.1 km/h 92 % 0 mm
07:47 -12.7 °C -13.3 °C 34635.4 hPa Calm   2.6 km/h 93 % 0 mm
07:52 -12.7 °C -13.3 °C 34645.6 hPa Calm   2.6 km/h 92 % 0 mm
08:02 -12.6 °C -13.2 °C 34645.6 hPa East 2.6 km/h 5.1 km/h 93 % 0 mm
08:12 -12.3 °C -12.9 °C 34645.6 hPa East 5.1 km/h 5.1 km/h 92 % 0 mm
08:17 -12.1 °C -12.9 °C 34645.6 hPa East 2.6 km/h 5.1 km/h 91 % 0 mm
08:22 -12 °C -12.9 °C 34635.4 hPa East 2.6 km/h 5.1 km/h 90 % 0 mm
08:32 -11.8 °C -12.7 °C 34645.6 hPa East 2.6 km/h 5.1 km/h 90 % 0 mm
08:42 -11.6 °C -12.7 °C 34635.4 hPa Calm   5.1 km/h 87 % 0 mm
08:47 -11.4 °C -12.6 °C 34645.6 hPa Calm   5.1 km/h 87 % 0 mm
08:52 -11.1 °C -12.3 °C 34645.6 hPa Calm   5.1 km/h 87 % 0 mm
09:02 -10.2 °C -12 °C 34645.6 hPa Calm   2.6 km/h 81 % 0 mm
09:12 -10.6 °C -12.4 °C 34645.6 hPa Calm     81 % 0 mm
09:22 -10.2 °C -11.9 °C 34645.6 hPa Calm     81 % 0 mm
09:32 -9.6 °C -12.1 °C 34645.6 hPa Calm     75 % 0 mm
09:42 -9.5 °C -11.8 °C 34645.6 hPa Calm     76 % 0 mm
09:47 -9.5 °C -12.1 °C 34645.6 hPa ESE 7.7 km/h 7.7 km/h 74 % 0 mm
09:52 -9.6 °C -12.1 °C 34645.6 hPa Calm   5.1 km/h 75 % 0 mm
09:57 -9.6 °C -11.9 °C 34645.6 hPa East 2.6 km/h 10.3 km/h 76 % 0 mm
10:02 -9.5 °C -11.8 °C 34635.4 hPa ESE 2.6 km/h 10.3 km/h 76 % 0 mm
10:12 -9.3 °C -11.8 °C 34635.4 hPa East 2.6 km/h 10.3 km/h 74 % 0 mm
10:22 -9.2 °C -11.8 °C 34635.4 hPa ESE 2.6 km/h 15.6 km/h 74 % 0 mm
10:32 -8.8 °C -11.5 °C 34635.4 hPa ESE 2.6 km/h 12.9 km/h 73 % 0 mm
10:42 -8.7 °C -11.5 °C 34635.4 hPa Calm   10.3 km/h 72 % 0 mm
10:47 -8.5 °C -11.4 °C 34635.4 hPa Calm   10.3 km/h 71 % 0 mm
10:52 -8.4 °C -11.3 °C 34635.4 hPa SE 5.1 km/h 10.3 km/h 72 % 0 mm
11:02 -7.9 °C -11.2 °C 34635.4 hPa ESE 7.7 km/h 12.9 km/h 69 % 0 mm
11:12 -7.6 °C -11.2 °C 34635.4 hPa East 2.6 km/h 12.9 km/h 66 % 0 mm
11:17 -7.4 °C -11.1 °C 34635.4 hPa SE 2.6 km/h 18.2 km/h 65 % 0 mm
11:22 -7.3 °C -11.3 °C 34635.4 hPa WSW 10.3 km/h 18.2 km/h 63 % 0 mm
11:32 -6.9 °C -11.1 °C 34625.2 hPa Calm   18.2 km/h 62 % 0 mm
11:37 -6.8 °C -11.1 °C 34625.2 hPa ENE 5.1 km/h 15.6 km/h 61 % 0 mm
11:42 -6.8 °C -11.3 °C 34625.2 hPa South 7.7 km/h 15.6 km/h 60 % 0 mm
11:47 -6.7 °C -11.3 °C 34625.2 hPa SE 10.3 km/h 20.8 km/h 59 % 0 mm
11:52 -6.5 °C -11.1 °C 34625.2 hPa East 2.6 km/h 20.8 km/h 59 % 0 mm
11:57 -6.3 °C -11.3 °C 34625.2 hPa ENE 7.7 km/h 20.8 km/h 56 % 0 mm
12:02 -6.3 °C -11.4 °C 34625.2 hPa East 10.3 km/h 20.8 km/h 56 % 0 mm
12:07 -6.2 °C -11.3 °C 34611.7 hPa Calm   18.2 km/h 56 % 0 mm
12:12 -6.2 °C -11.6 °C 34611.7 hPa NE 5.1 km/h 18.2 km/h 54 % 0 mm
12:17 -6.1 °C -11.5 °C 34611.7 hPa SSW 7.7 km/h 18.2 km/h 54 % 0 mm
12:22 -6 °C -11.6 °C 34611.7 hPa ESE 10.3 km/h 18.2 km/h 53 % 0 mm
12:27 -5.8 °C -11.4 °C 34611.7 hPa SE 5.1 km/h 18.2 km/h 53 % 0 mm
12:37 -5.7 °C -11.6 °C 34611.7 hPa SE 7.7 km/h 18.2 km/h 51 % 0 mm
12:42 -5.7 °C -11.8 °C 34611.7 hPa East 10.3 km/h 18.2 km/h 50 % 0 mm
12:47 -5.5 °C -11.6 °C 34601.5 hPa East 2.6 km/h 18.2 km/h 50 % 0 mm
12:52 -5.3 °C -11.8 °C 34601.5 hPa SSW 5.1 km/h 18.2 km/h 48 % 0 mm
12:57 -5.3 °C -11.9 °C 34601.5 hPa East 7.7 km/h 18.2 km/h 47 % 0 mm
13:02 -5.3 °C -11.6 °C 34601.5 hPa SE 10.3 km/h 18.2 km/h 49 % 0 mm
13:07 -5.2 °C -11.8 °C 34601.5 hPa SSW 2.6 km/h 25.9 km/h 47 % 0 mm
13:12 -4.9 °C -11.9 °C 34591.4 hPa SSE 2.6 km/h 25.9 km/h 45 % 0 mm
13:17 -4.9 °C -11.8 °C 34591.4 hPa SE 2.6 km/h 25.9 km/h 46 % 0 mm
13:22 -4.9 °C -11.9 °C 34591.4 hPa SSE 5.1 km/h 25.9 km/h 45 % 0 mm
13:27 -4.9 °C -12.1 °C 34591.4 hPa SE 12.9 km/h 18.2 km/h 44 % 0 mm
13:32 -5.1 °C -12.1 °C 34591.4 hPa SE 5.1 km/h 18.2 km/h 45 % 0 mm
13:37 -5.1 °C -11.8 °C 34591.4 hPa NE 7.7 km/h 20.8 km/h 46 % 0 mm
13:42 -4.9 °C -11.9 °C 34577.8 hPa ENE 7.7 km/h 20.8 km/h 45 % 0 mm
13:47 -4.8 °C -12.2 °C 34577.8 hPa South 7.7 km/h 18.2 km/h 43 % 0 mm
13:52 -4.8 °C -12.2 °C 34577.8 hPa ESE 2.6 km/h 18.2 km/h 43 % 0 mm
13:57 -4.7 °C -12.3 °C 34567.7 hPa South 2.6 km/h 18.2 km/h 42 % 0 mm
14:02 -4.7 °C -12.1 °C 34567.7 hPa East 2.6 km/h 18.2 km/h 43 % 0 mm
14:07 -4.6 °C -11.8 °C 34567.7 hPa South 7.7 km/h 18.2 km/h 44 % 0 mm
14:12 -4.6 °C -12.6 °C 34567.7 hPa East 2.6 km/h 18.2 km/h 40 % 0 mm
14:17 -4.4 °C -12.4 °C 34567.7 hPa ENE 12.9 km/h 18.2 km/h 40 % 0 mm
14:22 -4.4 °C -12.2 °C 34554.1 hPa SE 2.6 km/h 18.2 km/h 41 % 0 mm
14:32 -4.3 °C -12.3 °C 34554.1 hPa SE 7.7 km/h 18.2 km/h 40 % 0 mm
14:37 -4.1 °C -12.1 °C 34554.1 hPa SSE 2.6 km/h 18.2 km/h 40 % 0 mm
14:42 -4.1 °C -12.4 °C 34544 hPa Calm   18.2 km/h 39 % 0 mm
14:47 -4.2 °C -12.2 °C 34544 hPa SE 10.3 km/h 18.2 km/h 40 % 0 mm
14:52 -4 °C -12.5 °C 34544 hPa Calm   18.2 km/h 38 % 0 mm
14:57 -3.9 °C -12.6 °C 34544 hPa SE 5.1 km/h 15.6 km/h 37 % 0 mm
15:02 -3.8 °C -12.1 °C 34544 hPa ESE 7.7 km/h 15.6 km/h 39 % 0 mm
15:07 -3.9 °C -12.2 °C 34533.8 hPa ESE 5.1 km/h 20.8 km/h 39 % 0 mm
15:12 -3.9 °C -12.4 °C 34533.8 hPa East 7.7 km/h 20.8 km/h 38 % 0 mm
15:17 -4.1 °C -12.3 °C 34533.8 hPa Calm   20.8 km/h 39 % 0 mm
15:22 -4.1 °C -12.1 °C 34533.8 hPa East 5.1 km/h 20.8 km/h 40 % 0 mm
15:27 -3.9 °C -12 °C 34533.8 hPa SE 5.1 km/h 20.8 km/h 40 % 0 mm
15:32 -3.8 °C -11.9 °C 34533.8 hPa South 5.1 km/h 20.8 km/h 40 % 0 mm
15:37 -3.8 °C -11.7 °C 34520.3 hPa South 7.7 km/h 18.2 km/h 41 % 0 mm
15:42 -3.7 °C -12.2 °C 34520.3 hPa East 12.9 km/h 18.2 km/h 38 % 0 mm
15:52 -3.9 °C -12 °C 34520.3 hPa East 5.1 km/h 25.9 km/h 40 % 0 mm
15:57 -4 °C -11.8 °C 34510.1 hPa East 15.6 km/h 28.5 km/h 41 % 0 mm
16:02 -3.8 °C -12.1 °C 34510.1 hPa ESE 5.1 km/h 28.5 km/h 39 % 0 mm
16:07 -3.8 °C -11.9 °C 34510.1 hPa ENE 5.1 km/h 28.5 km/h 40 % 0 mm
16:12 -3.9 °C -12.2 °C 34510.1 hPa SW 7.7 km/h 28.5 km/h 39 % 0 mm
16:17 -3.8 °C -12.7 °C 34510.1 hPa SSE 15.6 km/h 25.9 km/h 36 % 0 mm
16:22 -3.7 °C -12.4 °C 34510.1 hPa ENE 2.6 km/h 25.9 km/h 37 % 0 mm
16:32 -3.6 °C -12.1 °C 34496.6 hPa Calm   15.6 km/h 38 % 0 mm
16:37 -3.6 °C -12.3 °C 34496.6 hPa SW 5.1 km/h 25.9 km/h 37 % 0 mm
16:42 -3.7 °C -12.2 °C 34496.6 hPa East 7.7 km/h 25.9 km/h 38 % 0 mm
16:47 -3.7 °C -12.1 °C 34496.6 hPa East 10.3 km/h 23.3 km/h 39 % 0 mm
16:52 -3.7 °C -12.2 °C 34496.6 hPa ESE 20.8 km/h 23.3 km/h 38 % 0 mm
16:57 -3.6 °C -12.1 °C 34486.4 hPa SE 7.7 km/h 25.9 km/h 38 % 0 mm
17:02 -3.6 °C -11.9 °C 34486.4 hPa East 7.7 km/h 25.9 km/h 39 % 0 mm
17:07 -3.4 °C -12 °C 34486.4 hPa ESE 5.1 km/h 25.9 km/h 38 % 0 mm
17:12 -3.4 °C -11.9 °C 34486.4 hPa WSW 5.1 km/h 25.9 km/h 38 % 0 mm
17:17 -3.4 °C -12 °C 34486.4 hPa East 12.9 km/h 20.8 km/h 38 % 0 mm
17:22 -3.7 °C -12 °C 34486.4 hPa SE 5.1 km/h 20.8 km/h 39 % 0 mm
17:32 -3.6 °C -12.1 °C 34476.3 hPa SSE 7.7 km/h 28.5 km/h 38 % 0 mm
17:42 -3.5 °C -12.1 °C 34476.3 hPa ENE 7.7 km/h 20.8 km/h 38 % 0 mm
17:52 -3.6 °C -11.9 °C 34476.3 hPa SE 5.1 km/h 31.1 km/h 39 % 0 mm
17:57 -3.6 °C -11.9 °C 34476.3 hPa ESE 12.9 km/h 20.8 km/h 39 % 0 mm
18:02 -3.7 °C -12.1 °C 34476.3 hPa East 5.1 km/h 20.8 km/h 39 % 0 mm
18:07 -3.9 °C -12.2 °C 34462.7 hPa Calm   20.8 km/h 39 % 0 mm
18:12 -3.9 °C -12.2 °C 34462.7 hPa ENE 7.7 km/h 20.8 km/h 39 % 0 mm
18:32 -3.9 °C -12 °C 34462.7 hPa East 5.1 km/h 18.2 km/h 40 % 0 mm
18:37 -4 °C -12.1 °C 34462.7 hPa ESE 2.6 km/h 18.2 km/h 40 % 0 mm
18:42 -4.2 °C -12.1 °C 34462.7 hPa SE 2.6 km/h 20.8 km/h 41 % 0 mm
18:47 -4.3 °C -12.1 °C 34462.7 hPa SE 2.6 km/h 18.2 km/h 41 % 0 mm
18:52 -4.4 °C -12 °C 34462.7 hPa SSE 5.1 km/h 18.2 km/h 42 % 0 mm
18:57 -4.6 °C -12.2 °C 34462.7 hPa East 2.6 km/h 25.9 km/h 42 % 0 mm
19:02 -4.7 °C -12.1 °C 34452.6 hPa East 5.1 km/h 25.9 km/h 43 % 0 mm
19:07 -4.8 °C -12.2 °C 34452.6 hPa ESE 2.6 km/h 15.6 km/h 43 % 0 mm
19:12 -5.1 °C -12.2 °C 34452.6 hPa SE 5.1 km/h 15.6 km/h 44 % 0 mm
19:17 -5.2 °C -12.2 °C 34452.6 hPa East 5.1 km/h 15.6 km/h 45 % 0 mm
19:22 -5.4 °C -12.3 °C 34452.6 hPa ESE 2.6 km/h 15.6 km/h 45 % 0 mm
19:27 -5.6 °C -12.3 °C 34452.6 hPa East 2.6 km/h 15.6 km/h 46 % 0 mm
19:32 -5.7 °C -12.3 °C 34452.6 hPa South 2.6 km/h 15.6 km/h 47 % 0 mm
19:37 -5.8 °C -12.2 °C 34462.7 hPa Calm   12.9 km/h 48 % 0 mm
19:42 -5.9 °C -12.3 °C 34462.7 hPa Calm   12.9 km/h 48 % 0 mm
19:47 -6.1 °C -12.4 °C 34452.6 hPa ENE 2.6 km/h 12.9 km/h 48 % 0 mm
19:52 -6.2 °C -12.4 °C 34452.6 hPa Calm   12.9 km/h 49 % 0 mm
19:57 -6.4 °C -12.4 °C 34452.6 hPa Calm   10.3 km/h 50 % 0 mm
20:07 -6.8 °C -12.6 °C 34462.7 hPa Calm   5.1 km/h 51 % 0 mm
20:12 -6.9 °C -12.6 °C 34462.7 hPa Calm   5.1 km/h 52 % 0 mm
20:17 -7.2 °C -12.6 °C 34462.7 hPa Calm   2.6 km/h 53 % 0 mm
20:22 -7.3 °C -12.6 °C 34462.7 hPa Calm   2.6 km/h 54 % 0 mm
20:27 -7.5 °C -12.6 °C 34462.7 hPa Calm     55 % 0 mm
20:32 -7.6 °C -12.7 °C 34462.7 hPa Calm     55 % 0 mm
20:37 -7.6 °C -12.7 °C 34462.7 hPa Calm   2.6 km/h 55 % 0 mm
20:42 -7.4 °C -12.7 °C 34462.7 hPa Calm   2.6 km/h 54 % 0 mm
20:47 -7.4 °C -12.7 °C 34462.7 hPa Calm   2.6 km/h 54 % 0 mm
20:52 -7.6 °C -12.8 °C 34462.7 hPa Calm   2.6 km/h 54 % 0 mm
20:57 -7.7 °C -12.8 °C 34462.7 hPa Calm     55 % 0 mm
21:07 -7.9 °C -12.8 °C 34462.7 hPa Calm     56 % 0 mm
21:12 -7.9 °C -12.9 °C 34462.7 hPa Calm     56 % 0 mm
21:17 -8.1 °C -12.7 °C 34462.7 hPa Calm     58 % 0 mm
21:22 -8.1 °C -12.7 °C 34462.7 hPa Calm     58 % 0 mm
21:32 -8.4 °C -12.7 °C 34462.7 hPa Calm     60 % 0 mm
21:37 -8.4 °C -12.7 °C 34462.7 hPa Calm     61 % 0 mm
21:42 -8.5 °C -12.7 °C 34452.6 hPa Calm     61 % 0 mm
21:47 -8.5 °C -12.7 °C 34462.7 hPa Calm     61 % 0 mm
21:52 -8.5 °C -12.7 °C 34452.6 hPa Calm     61 % 0 mm
21:57 -8.7 °C -12.7 °C 34452.6 hPa Calm     62 % 0 mm
22:02 -8.6 °C -12.6 °C 34452.6 hPa Calm     62 % 0 mm
22:07 -8.6 °C -12.6 °C 34452.6 hPa Calm     62 % 0 mm
22:12 -8.4 °C -12.5 °C 34452.6 hPa Calm     62 % 0 mm
22:17 -8.4 °C -12.5 °C 34452.6 hPa Calm     62 % 0 mm
22:22 -8.3 °C -12.3 °C 34452.6 hPa Calm     62 % 0 mm
22:27 -8.3 °C -12.3 °C 34452.6 hPa Calm     62 % 0 mm
22:37 -8.3 °C -12.3 °C 34452.6 hPa Calm     63 % 0 mm
22:42 -8.4 °C -12.2 °C 34442.4 hPa Calm     64 % 0 mm
22:47 -8.4 °C -12.1 °C 34442.4 hPa Calm     65 % 0 mm
22:52 -8.4 °C -12.1 °C 34442.4 hPa Calm     65 % 0 mm
22:57 -8.4 °C -12 °C 34442.4 hPa Calm     66 % 0 mm
23:02 -8.4 °C -11.9 °C 34442.4 hPa Calm     66 % 0 mm
23:12 -8.4 °C -11.9 °C 34442.4 hPa Calm     67 % 0 mm
23:17 -8.5 °C -11.9 °C 34442.4 hPa Calm     67 % 0 mm
23:22 -8.6 °C -11.7 °C 34442.4 hPa Calm     69 % 0 mm
23:27 -8.6 °C -11.8 °C 34442.4 hPa Calm     68 % 0 mm
23:32 -8.6 °C -11.7 °C 34442.4 hPa Calm     69 % 0 mm
23:37 -8.6 °C -11.7 °C 34442.4 hPa Calm     69 % 0 mm
23:42 -9 °C -12.4 °C 34442.4 hPa Calm     67 % 0 mm
23:47 -9.3 °C -11.9 °C 34442.4 hPa Calm   2.6 km/h 74 % 0 mm
23:52 -8.9 °C -11.6 °C 34442.4 hPa Calm   2.6 km/h 73 % 0 mm
23:57 -8.8 °C -11.7 °C 34442.4 hPa Calm   15.6 km/h 71 % 0 mm
Meteo18
Compliments of Weather Underground - 4 mb

Script developed by  Jim McMurry - jmcmurry@mwt.net Adapted for the template by  Wim van der Kuil - Leuven-Template.eu

You find our weather info also at:

European Weather Network

Weather Underground

Equipment we use:

Weather-station
Davis Vue

Weather-program
Meteobridge

Weather-server
Raspberry PI 2 B+

Provider
1 and 1

Davis Vue

Meteobridge

Raspberry PI 2 B+

1 and 1